Details From EGPK - Prestwick
To EGHI - Southampton
Flight Number -
Tags Generated
Created
Modified
Stats Distance 297 nm / 549 km
Max Altitude 0 ft / 0 m
Waypoints 3
Social Downloads 1
Likes 0
Share VATSIM

Download

Looking for another format? Having issues loading an existing format? Contact us
Advertisement - Login to hide

Notes

Generated

Route

EGPK EAS EGHI

ID Type Via Altitude Latitude Longitude Leg Dist Tot Dist Heading (true) Name
O EGPK APT - 0 ft / 0 m 55.48836˚ -4.58741˚ - 0 nm - -
EAS NDB - 0 ft / 0 m 50.95503˚ -1.35612˚ 295 nm 295 nm 156° / 158° SOUTHAMPTON NDB
O EGHI APT - 0 ft / 0 m 50.94295˚ -1.36088˚ 0 nm 296 nm 194° / 194° -

Altitude Profile

Advertisement - Login to hide

Weather


0- 5 10 15 20 25 30 35+ Temperature / ° C

Clouds and Precipitation
Forecast for 2017-12-12 06:00 UTC. Updated 2 hours ago

Ground ~20,000 ft ~40,000 ft Winds

EGPK

Details ICAO EGPK (PIK)
Name Prestwick
Region United Kingdom
Timezone Europe/London (UTC+0.0)
Stats Elevation 65 ft / 20 m (AMSL)
Location 55.502302° -4.588363°
Runways 2
Magnetic Variation 2.729° W

METAR

EGPK 120650Z 12002KT 9999 FEW040 M03/M05 Q1003

Decode

TAF

TAF TAF EGPK 120502Z 1206/1306 VRB03KT 9999 FEW035 BECMG 1214/1217 22015KT TEMPO 1215/1220 19018G30KT 6000 RA BKN008 BECMG 1218/1221 28015KT PROB40 TEMPO 1220/1303 25018G28KT 7000 SHRA BKN012 BECMG 1302/1305 22014KT TEMPO 1303/1306 23018G30KT 6000 SHRA BKN009

Decode

Departure Runways

ID Width Length Bearing (true) Bearing (mag) Surface Threshold Offset Overrun Length
03 148 ft / 45 m 6,534 ft / 1,992 m 23.69° 26.42° Asphalt 538 ft / 164 m 0 ft / 0 m
13 151 ft / 46 m 9,789 ft / 2,984 m 121.38° 124.11° Asphalt 817 ft / 249 m 0 ft / 0 m
21 148 ft / 45 m 6,534 ft / 1,992 m 203.71° 206.44° Asphalt 0 ft / 0 m 0 ft / 0 m
31 151 ft / 46 m 9,789 ft / 2,984 m 301.42° 304.15° Asphalt 0 ft / 0 m 0 ft / 0 m

EGHI

Details ICAO EGHI (SOU)
Name Southampton
Region United Kingdom
Timezone Europe/London (UTC+0.0)
Stats Elevation 44 ft / 13 m (AMSL)
Location 50.950255° -1.356806°
Runways 1
Magnetic Variation 0.814° W

METAR

EGHI 120650Z 00000KT CAVOK M05/M05 Q1007

Decode

TAF

Not found

Destination Runways

ID Width Length Bearing (true) Bearing (mag) Surface Threshold Offset Overrun Length
02 121 ft / 37 m 5,650 ft / 1,722 m 19.33° 20.14° Asphalt 240 ft / 73 m 0 ft / 0 m
20 121 ft / 37 m 5,650 ft / 1,722 m 199.34° 200.15° Asphalt 144 ft / 44 m 0 ft / 0 m

Approach Navaids

Runway Type Ident Frequency Range Bearing (true) Bearing (mag) Slope Elevation
20 Localiser ISN 110.75 MHz 18 nm / 33 km 199.34° 200.15° - 44 ft / 13 m (AMSL)
20 Glidescope ISN 110.75 MHz 10 nm / 19 km 199.34° 200.15° 3.10° 44 ft / 13 m (AMSL)
20 DME ISN 110.75 MHz 18 nm / 33 km - - - 54 ft / 16 m (AMSL)